createdAt,value
2018-05-07T00:00:24.482Z,16.10
2018-05-07T00:02:52.546Z,16.00
2018-05-07T00:05:20.588Z,16.00
2018-05-07T00:07:48.646Z,16.00
2018-05-07T00:10:16.699Z,16.00
2018-05-07T00:12:44.734Z,15.90
2018-05-07T00:15:13.578Z,15.70
2018-05-07T00:17:41.626Z,15.70
2018-05-07T00:20:09.776Z,15.70
2018-05-07T00:22:38.670Z,15.60
2018-05-07T00:25:06.677Z,15.60
2018-05-07T00:27:34.715Z,15.60
2018-05-07T00:30:03.513Z,15.50
2018-05-07T00:32:31.565Z,15.50
2018-05-07T00:35:00.453Z,15.40
2018-05-07T00:37:28.501Z,15.40
2018-05-07T00:39:56.610Z,15.40
2018-05-07T00:42:25.517Z,15.30
2018-05-07T00:44:53.606Z,15.30
2018-05-07T00:47:21.653Z,15.20
2018-05-07T00:49:49.761Z,15.00
2018-05-07T00:52:17.779Z,14.80
2018-05-07T00:54:59.207Z,14.70
2018-05-07T00:57:27.286Z,14.70
2018-05-07T00:59:55.374Z,14.70
2018-05-07T01:02:23.434Z,14.70
2018-05-07T01:04:51.475Z,14.60
2018-05-07T01:07:19.521Z,14.40
2018-05-07T01:09:48.345Z,14.40
2018-05-07T01:12:16.378Z,14.40
2018-05-07T01:14:45.218Z,14.20
2018-05-07T01:17:13.317Z,14.20
2018-05-07T01:19:41.397Z,14.10
2018-05-07T01:22:09.472Z,14.10
2018-05-07T01:24:37.563Z,14.10
2018-05-07T01:27:06.410Z,13.90
2018-05-07T01:29:34.499Z,13.90
2018-05-07T01:32:02.582Z,13.80
2018-05-07T01:34:31.386Z,13.70
2018-05-07T01:36:59.429Z,13.70
2018-05-07T01:39:27.505Z,13.70
2018-05-07T01:41:55.603Z,13.70
2018-05-07T01:44:23.717Z,13.70
2018-05-07T01:46:51.806Z,13.70
2018-05-07T01:49:19.878Z,13.70
2018-05-07T01:51:47.958Z,13.60
2018-05-07T01:54:16.030Z,13.60
2018-05-07T01:56:44.082Z,13.60
2018-05-07T01:59:12.154Z,13.50
2018-05-07T02:01:51.063Z,13.50
2018-05-07T02:04:19.089Z,13.40
2018-05-07T02:06:47.926Z,13.20
2018-05-07T02:09:17.019Z,13.20
2018-05-07T02:11:45.102Z,13.20
2018-05-07T02:14:13.197Z,13.10
2018-05-07T02:17:06.598Z,13.00
2018-05-07T02:19:40.241Z,13.00
2018-05-07T02:22:13.344Z,12.80
2018-05-07T02:24:41.383Z,12.70
2018-05-07T02:27:09.469Z,12.70
2018-05-07T02:29:37.523Z,12.70
2018-05-07T02:32:05.561Z,12.60
2018-05-07T02:34:33.627Z,12.60
2018-05-07T02:37:01.683Z,12.50
2018-05-07T02:39:30.548Z,12.50
2018-05-07T02:41:58.593Z,12.40
2018-05-07T02:44:26.630Z,12.40
2018-05-07T02:46:54.711Z,12.40
2018-05-07T02:49:22.774Z,12.40
2018-05-07T02:51:50.803Z,12.50
2018-05-07T02:54:18.862Z,12.40
2018-05-07T02:56:46.908Z,12.40
2018-05-07T02:59:14.989Z,12.30
2018-05-07T03:01:43.042Z,12.30
2018-05-07T03:04:11.158Z,12.30
2018-05-07T03:06:39.227Z,12.30
2018-05-07T03:09:07.289Z,12.20
2018-05-07T03:11:35.372Z,12.20
2018-05-07T03:14:03.446Z,12.20
2018-05-07T03:16:31.491Z,12.10
2018-05-07T03:18:59.587Z,12.10
2018-05-07T03:21:27.658Z,12.00
2018-05-07T03:23:55.697Z,11.90
2018-05-07T03:26:23.745Z,11.90
2018-05-07T03:28:51.782Z,11.90
2018-05-07T03:31:19.849Z,11.90
2018-05-07T03:33:48.097Z,11.80
2018-05-07T03:36:16.130Z,11.70
2018-05-07T03:38:44.203Z,11.80
2018-05-07T03:41:12.518Z,11.80
2018-05-07T03:43:40.559Z,11.80
2018-05-07T03:46:08.629Z,11.80
2018-05-07T03:48:36.692Z,11.80
2018-05-07T03:51:05.519Z,11.70
2018-05-07T03:53:40.503Z,11.80
2018-05-07T03:56:09.306Z,11.80
2018-05-07T03:58:37.410Z,11.70
2018-05-07T04:01:06.313Z,11.70
2018-05-07T04:03:34.387Z,11.80
2018-05-07T04:06:02.422Z,11.80
2018-05-07T04:08:30.520Z,11.80
2018-05-07T04:10:58.581Z,11.80
2018-05-07T04:13:26.625Z,11.80
2018-05-07T04:15:54.755Z,11.90
2018-05-07T04:18:34.438Z,11.90
2018-05-07T04:21:13.321Z,11.60
2018-05-07T04:23:57.217Z,11.60
2018-05-07T04:26:25.319Z,11.60
2018-05-07T04:28:53.349Z,11.60
2018-05-07T04:31:21.437Z,11.60
2018-05-07T04:33:49.564Z,11.60
2018-05-07T04:36:17.608Z,11.60
2018-05-07T04:38:45.690Z,11.60
2018-05-07T04:41:13.765Z,11.60
2018-05-07T04:43:41.834Z,11.60
2018-05-07T04:46:09.913Z,11.60
2018-05-07T04:48:38.016Z,11.60
2018-05-07T04:51:06.918Z,11.60
2018-05-07T04:53:34.982Z,11.60
2018-05-07T04:56:03.773Z,11.70
2018-05-07T04:58:32.026Z,11.70
2018-05-07T05:01:07.783Z,11.60
2018-05-07T05:03:36.635Z,11.60
2018-05-07T05:06:04.714Z,11.50
2018-05-07T05:08:32.779Z,11.50
2018-05-07T05:11:00.830Z,11.40
2018-05-07T05:13:28.862Z,11.40
2018-05-07T05:15:57.663Z,11.30
2018-05-07T05:18:25.799Z,11.30
2018-05-07T05:20:53.885Z,11.40
2018-05-07T05:23:22.750Z,11.40
2018-05-07T05:25:50.802Z,11.50
2018-05-07T05:28:18.870Z,11.50
2018-05-07T05:30:46.879Z,11.50
2018-05-07T05:33:14.962Z,11.60
2018-05-07T05:35:43.095Z,11.70
2018-05-07T05:38:11.169Z,11.70
2018-05-07T05:40:39.252Z,11.80
2018-05-07T05:43:07.322Z,11.80
2018-05-07T05:45:35.430Z,11.90
2018-05-07T05:48:20.442Z,12.00
2018-05-07T05:50:48.473Z,12.00
2018-05-07T05:53:17.310Z,12.20
2018-05-07T05:55:45.394Z,12.10
2018-05-07T05:58:13.495Z,12.20
2018-05-07T06:00:42.341Z,12.30
2018-05-07T06:03:10.438Z,12.30
2018-05-07T06:05:38.517Z,12.40
2018-05-07T06:08:06.549Z,12.50
2018-05-07T06:10:34.663Z,12.50
2018-05-07T06:13:02.726Z,12.60
2018-05-07T06:15:30.793Z,12.70
2018-05-07T06:17:58.889Z,12.80
2018-05-07T06:20:27.746Z,12.90
2018-05-07T06:23:01.952Z,12.90
2018-05-07T06:25:36.032Z,13.00
2018-05-07T06:28:04.057Z,13.10
2018-05-07T06:30:36.073Z,13.20
2018-05-07T06:33:04.150Z,13.20
2018-05-07T06:35:32.242Z,13.30
2018-05-07T06:38:00.317Z,13.40
2018-05-07T06:40:28.398Z,13.50
2018-05-07T06:42:56.440Z,13.60
2018-05-07T06:47:58.004Z,13.80
2018-05-07T06:50:26.102Z,13.90
2018-05-07T06:52:54.172Z,14.00
2018-05-07T06:58:17.268Z,14.20
2018-05-07T07:00:45.306Z,14.40
2018-05-07T07:03:18.347Z,14.50
2018-05-07T07:05:47.175Z,14.80
2018-05-07T07:08:15.334Z,14.80
2018-05-07T07:10:44.025Z,15.10
2018-05-07T07:13:12.118Z,15.10
2018-05-07T07:15:41.158Z,15.20
2018-05-07T07:18:09.999Z,15.40
2018-05-07T07:20:38.078Z,15.40
2018-05-07T07:23:07.131Z,15.50
2018-05-07T07:25:35.186Z,15.60
2018-05-07T07:31:08.097Z,15.80
2018-05-07T07:33:40.077Z,15.90
2018-05-07T07:36:08.920Z,16.10
2018-05-07T07:38:43.091Z,16.10
2018-05-07T07:41:11.143Z,16.20
2018-05-07T07:43:49.169Z,16.30
2018-05-07T07:46:17.294Z,16.40
2018-05-07T07:48:46.147Z,16.50
2018-05-07T07:51:14.227Z,16.50
2018-05-07T07:53:44.423Z,16.60
2018-05-07T07:56:12.398Z,16.70
2018-05-07T07:58:40.497Z,16.80
2018-05-07T08:01:19.443Z,16.80
2018-05-07T08:03:48.287Z,17.00
2018-05-07T08:06:16.353Z,17.00
2018-05-07T08:08:44.438Z,17.10
2018-05-07T08:11:13.487Z,17.10
2018-05-07T08:13:41.563Z,17.20
2018-05-07T08:16:09.666Z,17.30
2018-05-07T08:18:37.722Z,17.30
2018-05-07T08:21:05.749Z,17.40
2018-05-07T08:23:33.839Z,17.50
2018-05-07T08:26:01.870Z,17.50
2018-05-07T08:28:30.166Z,17.50
2018-05-07T08:30:58.294Z,17.60
2018-05-07T08:33:26.348Z,17.60
2018-05-07T08:35:54.455Z,17.70
2018-05-07T08:38:22.534Z,17.70
2018-05-07T08:40:50.577Z,17.80
2018-05-07T08:43:18.638Z,17.90
2018-05-07T08:45:46.720Z,17.90
2018-05-07T08:48:14.761Z,18.00
2018-05-07T08:50:47.562Z,18.10
2018-05-07T08:53:16.448Z,18.20
2018-05-07T08:55:44.462Z,18.10
2018-05-07T08:58:12.524Z,18.20
2018-05-07T09:00:40.609Z,18.30
2018-05-07T09:03:15.566Z,18.40
2018-05-07T09:05:43.629Z,18.40
2018-05-07T09:08:11.697Z,18.50
2018-05-07T09:10:39.798Z,18.60
2018-05-07T09:13:08.639Z,18.70
2018-05-07T09:15:36.678Z,18.70
2018-05-07T09:18:04.718Z,18.80
2018-05-07T09:20:33.852Z,18.90
2018-05-07T09:23:01.935Z,18.80
2018-05-07T09:25:29.980Z,18.90
2018-05-07T09:27:58.429Z,19.00
2018-05-07T09:30:26.458Z,19.00
2018-05-07T09:32:54.499Z,19.10
2018-05-07T09:35:22.603Z,19.10
2018-05-07T09:37:50.690Z,19.20
2018-05-07T09:40:18.757Z,19.40
2018-05-07T09:42:46.830Z,19.40
2018-05-07T09:45:14.939Z,19.50
2018-05-07T09:47:42.947Z,19.60
2018-05-07T09:50:10.994Z,19.70
2018-05-07T09:52:39.423Z,19.80
2018-05-07T09:55:07.462Z,19.80
2018-05-07T10:00:43.301Z,20.00
2018-05-07T10:03:11.478Z,20.00
2018-05-07T10:05:39.543Z,20.10
2018-05-07T10:08:07.609Z,20.10
2018-05-07T10:10:35.687Z,20.10
2018-05-07T10:13:03.771Z,20.20
2018-05-07T10:15:31.858Z,20.20
2018-05-07T10:17:59.922Z,20.30
2018-05-07T10:20:31.174Z,20.50
2018-05-07T10:22:59.278Z,20.50
2018-05-07T10:25:27.333Z,20.60
2018-05-07T10:27:55.400Z,20.70
2018-05-07T10:30:23.462Z,20.70
2018-05-07T10:32:51.605Z,20.70
2018-05-07T10:35:19.689Z,20.70
2018-05-07T10:37:47.722Z,20.80
2018-05-07T10:40:15.794Z,20.90
2018-05-07T10:42:43.869Z,20.90
2018-05-07T10:45:22.934Z,21.00
2018-05-07T10:47:51.031Z,21.00
2018-05-07T10:50:19.086Z,21.10
2018-05-07T10:52:47.153Z,21.30
2018-05-07T10:55:16.206Z,21.40
2018-05-07T10:57:44.289Z,21.40
2018-05-07T11:00:12.395Z,21.30
2018-05-07T11:02:41.280Z,21.40
2018-05-07T11:05:09.353Z,21.40
2018-05-07T11:07:37.406Z,21.50
2018-05-07T11:10:05.481Z,21.60
2018-05-07T11:12:33.538Z,21.80
2018-05-07T11:15:01.606Z,21.80
2018-05-07T11:17:29.761Z,21.90
2018-05-07T11:19:57.807Z,22.00
2018-05-07T11:22:25.867Z,22.10
2018-05-07T11:24:53.925Z,22.20
2018-05-07T11:27:21.998Z,22.30
2018-05-07T11:29:50.074Z,22.40
2018-05-07T11:32:18.150Z,22.40
2018-05-07T11:34:46.210Z,22.30
2018-05-07T11:37:14.281Z,22.30
2018-05-07T11:39:42.369Z,22.20
2018-05-07T11:42:10.869Z,22.30
2018-05-07T11:44:42.889Z,22.40
2018-05-07T11:47:10.931Z,22.40
2018-05-07T11:49:39.027Z,22.50
2018-05-07T11:52:07.125Z,22.70
2018-05-07T11:54:43.085Z,22.80
2018-05-07T11:57:11.166Z,22.80
2018-05-07T11:59:39.225Z,22.80
2018-05-07T12:02:07.298Z,22.90
2018-05-07T12:04:35.358Z,22.90
2018-05-07T12:07:03.455Z,22.90
2018-05-07T12:09:31.550Z,22.90
2018-05-07T12:11:59.607Z,23.00
2018-05-07T12:14:31.740Z,23.20
2018-05-07T12:16:59.778Z,23.30
2018-05-07T12:19:28.620Z,23.50
2018-05-07T12:21:56.697Z,23.50
2018-05-07T12:24:24.811Z,23.60
2018-05-07T12:26:52.862Z,23.60
2018-05-07T12:29:20.946Z,23.50
2018-05-07T12:31:49.841Z,23.70
2018-05-07T12:34:17.892Z,23.70
2018-05-07T12:36:53.838Z,23.80
2018-05-07T12:39:21.882Z,23.90
2018-05-07T12:41:49.933Z,24.10
2018-05-07T12:44:18.053Z,24.10
2018-05-07T12:46:46.132Z,24.00
2018-05-07T12:49:14.219Z,24.10
2018-05-07T12:51:42.294Z,24.00
2018-05-07T12:54:10.345Z,24.10
2018-05-07T12:56:38.448Z,24.20
2018-05-07T12:59:06.578Z,24.30
2018-05-07T13:01:35.378Z,24.50
2018-05-07T13:04:03.458Z,24.40
2018-05-07T13:06:31.521Z,24.50
2018-05-07T13:08:59.621Z,24.50
2018-05-07T13:11:47.233Z,24.60
2018-05-07T13:14:15.289Z,24.60
2018-05-07T13:16:43.346Z,24.50
2018-05-07T13:19:11.439Z,24.60
2018-05-07T13:21:39.473Z,24.60
2018-05-07T13:24:07.534Z,24.60
2018-05-07T13:26:35.659Z,24.80
2018-05-07T13:29:03.718Z,24.90
2018-05-07T13:31:41.835Z,25.00
2018-05-07T13:34:09.998Z,25.00
2018-05-07T13:36:38.081Z,25.00
2018-05-07T13:39:06.105Z,24.90
2018-05-07T13:41:34.177Z,25.00
2018-05-07T13:44:02.232Z,25.20
2018-05-07T13:46:30.281Z,25.40
2018-05-07T13:48:58.330Z,25.40
2018-05-07T13:51:31.354Z,25.50
2018-05-07T13:53:59.426Z,25.60
2018-05-07T13:56:27.514Z,25.80
2018-05-07T13:58:55.593Z,25.80
2018-05-07T14:01:23.650Z,25.80
2018-05-07T14:03:51.722Z,25.90
2018-05-07T14:06:19.792Z,25.90
2018-05-07T14:08:56.762Z,25.90
2018-05-07T14:11:24.842Z,26.00
2018-05-07T14:13:56.909Z,26.10
2018-05-07T14:16:25.000Z,26.20
2018-05-07T14:18:53.058Z,26.30
2018-05-07T14:21:21.137Z,26.30
2018-05-07T14:23:49.954Z,26.50
2018-05-07T14:26:25.861Z,26.40
2018-05-07T14:28:53.930Z,26.50
2018-05-07T14:31:21.985Z,26.40
2018-05-07T14:33:50.033Z,26.50
2018-05-07T14:36:23.954Z,26.40
2018-05-07T14:38:52.043Z,26.50
2018-05-07T14:41:20.025Z,26.50
2018-05-07T14:43:48.074Z,26.50
2018-05-07T14:46:23.913Z,26.60
2018-05-07T14:48:51.970Z,26.70
2018-05-07T14:51:20.091Z,26.70
2018-05-07T14:53:48.134Z,26.70
2018-05-07T14:56:16.187Z,26.70
2018-05-07T14:58:46.162Z,26.70
2018-05-07T15:01:14.203Z,26.70
2018-05-07T15:03:42.254Z,26.70
2018-05-07T15:06:10.295Z,26.80
2018-05-07T15:08:38.325Z,26.80
2018-05-07T15:11:06.385Z,26.90
2018-05-07T15:13:34.506Z,26.90
2018-05-07T15:16:02.469Z,26.90
2018-05-07T15:18:30.633Z,27.00
2018-05-07T15:20:58.678Z,27.00
2018-05-07T15:23:26.776Z,27.00
2018-05-07T15:26:10.634Z,27.00
2018-05-07T15:28:38.707Z,27.10
2018-05-07T15:31:06.758Z,27.10
2018-05-07T15:33:34.826Z,27.10
2018-05-07T15:36:02.875Z,27.10
2018-05-07T15:38:35.859Z,27.00
2018-05-07T15:41:04.046Z,27.10
2018-05-07T15:43:32.118Z,27.20
2018-05-07T15:46:00.194Z,27.40
2018-05-07T15:48:28.273Z,27.60
2018-05-07T15:50:56.370Z,28.10
2018-05-07T15:53:24.425Z,28.90
2018-05-07T15:55:52.572Z,30.20
2018-05-07T15:58:21.365Z,33.40
2018-05-07T16:00:49.425Z,33.30
2018-05-07T16:03:17.764Z,34.60
2018-05-07T16:05:52.374Z,35.40
2018-05-07T16:08:20.441Z,36.10
2018-05-07T16:10:48.513Z,36.80
2018-05-07T16:13:20.282Z,37.60
2018-05-07T16:15:48.357Z,38.20
2018-05-07T16:18:16.419Z,37.70
2018-05-07T16:20:44.574Z,37.30
2018-05-07T16:23:12.755Z,37.50
2018-05-07T16:25:41.494Z,38.10
2018-05-07T16:28:20.372Z,38.10
2018-05-07T16:30:50.486Z,38.30
2018-05-07T16:33:18.836Z,38.30
2018-05-07T16:35:47.974Z,38.40
2018-05-07T16:38:16.531Z,38.70
2018-05-07T16:40:44.973Z,39.30
2018-05-07T16:43:13.013Z,40.00
2018-05-07T16:45:41.100Z,40.70
2018-05-07T16:48:12.341Z,41.40
2018-05-07T16:50:40.433Z,41.60
2018-05-07T16:53:08.486Z,41.90
2018-05-07T16:55:36.527Z,41.20
2018-05-07T16:58:04.594Z,41.80
2018-05-07T17:00:32.690Z,42.10
2018-05-07T17:03:00.781Z,41.90
2018-05-07T17:05:29.786Z,42.20
2018-05-07T17:07:57.858Z,42.10
2018-05-07T17:10:26.118Z,41.50
2018-05-07T17:12:54.182Z,40.20
2018-05-07T17:15:22.278Z,40.00
2018-05-07T17:17:51.118Z,39.10
2018-05-07T17:20:19.198Z,39.00
2018-05-07T17:22:47.275Z,39.20
2018-05-07T17:25:15.326Z,39.20
2018-05-07T17:27:43.407Z,38.50
2018-05-07T17:30:11.474Z,38.50
2018-05-07T17:32:39.572Z,37.70
2018-05-07T17:35:07.594Z,37.40
2018-05-07T17:37:35.641Z,37.50
2018-05-07T17:40:04.632Z,37.50
2018-05-07T17:42:36.686Z,37.40
2018-05-07T17:45:16.714Z,37.60
2018-05-07T17:47:56.597Z,37.60
2018-05-07T17:50:24.726Z,37.40
2018-05-07T17:52:52.810Z,37.30
2018-05-07T17:55:20.894Z,37.10
2018-05-07T17:57:48.975Z,36.90
2018-05-07T18:00:17.929Z,36.50
2018-05-07T18:02:46.021Z,36.50
2018-05-07T18:05:14.162Z,36.30
2018-05-07T18:07:42.239Z,35.80
2018-05-07T18:10:10.306Z,35.00
2018-05-07T18:12:38.400Z,34.20
2018-05-07T18:15:06.502Z,33.40
2018-05-07T18:17:34.574Z,33.10
2018-05-07T18:20:02.643Z,32.30
2018-05-07T18:22:30.694Z,32.10
2018-05-07T18:24:58.765Z,31.50
2018-05-07T18:27:26.850Z,31.00
2018-05-07T18:29:54.922Z,30.40
2018-05-07T18:32:23.170Z,30.10
2018-05-07T18:34:51.203Z,29.50
2018-05-07T18:37:20.765Z,28.50
2018-05-07T18:39:49.652Z,27.80
2018-05-07T18:42:26.685Z,27.80
2018-05-07T18:44:54.789Z,27.10
2018-05-07T18:47:22.865Z,26.30
2018-05-07T18:49:50.937Z,25.70
2018-05-07T18:52:18.977Z,25.10
2018-05-07T18:54:47.026Z,24.80
2018-05-07T18:57:15.114Z,24.40
2018-05-07T18:59:43.165Z,24.00
2018-05-07T19:02:11.259Z,23.70
2018-05-07T19:04:39.311Z,23.40
2018-05-07T19:07:07.481Z,23.20
2018-05-07T19:09:35.457Z,23.00
2018-05-07T19:12:03.504Z,22.80
2018-05-07T19:14:31.582Z,22.70
2018-05-07T19:16:59.669Z,22.60
2018-05-07T19:19:27.726Z,22.50
2018-05-07T19:21:55.828Z,22.30
2018-05-07T19:24:23.922Z,22.20
2018-05-07T19:26:52.025Z,22.10
2018-05-07T19:29:20.111Z,22.00
2018-05-07T19:31:54.281Z,21.90
2018-05-07T19:34:22.330Z,21.80
2018-05-07T19:36:50.398Z,21.70
2018-05-07T19:39:18.502Z,21.70
2018-05-07T19:41:46.553Z,21.60
2018-05-07T19:44:14.612Z,21.60
2018-05-07T19:46:42.811Z,21.50
2018-05-07T19:49:11.609Z,21.30
2018-05-07T19:51:40.421Z,21.20
2018-05-07T19:54:08.513Z,21.20
2018-05-07T19:56:36.600Z,21.10
2018-05-07T19:59:05.429Z,21.00
2018-05-07T20:01:34.253Z,21.00
2018-05-07T20:04:02.323Z,20.90
2018-05-07T20:06:32.522Z,20.90
2018-05-07T20:09:00.589Z,20.90
2018-05-07T20:11:29.421Z,20.70
2018-05-07T20:13:57.497Z,20.70
2018-05-07T20:16:25.614Z,20.70
2018-05-07T20:18:53.793Z,20.70
2018-05-07T20:21:21.875Z,20.60
2018-05-07T20:23:49.962Z,20.50
2018-05-07T20:26:18.036Z,20.50
2018-05-07T20:28:46.106Z,20.40
2018-05-07T20:31:14.277Z,20.40
2018-05-07T20:33:42.379Z,20.40
2018-05-07T20:36:11.218Z,20.40
2018-05-07T20:38:39.250Z,20.20
2018-05-07T20:41:07.328Z,20.20
2018-05-07T20:43:35.477Z,20.10
2018-05-07T20:46:11.242Z,20.10
2018-05-07T20:48:39.326Z,20.10
2018-05-07T20:51:12.577Z,19.90
2018-05-07T20:53:41.506Z,19.90
2018-05-07T20:56:09.571Z,19.90
2018-05-07T20:58:37.622Z,19.90
2018-05-07T21:01:05.818Z,19.80
2018-05-07T21:03:35.805Z,19.80
2018-05-07T21:06:03.909Z,19.70
2018-05-07T21:08:32.319Z,19.70
2018-05-07T21:11:00.391Z,19.60
2018-05-07T21:13:28.462Z,19.60
2018-05-07T21:15:56.536Z,19.60
2018-05-07T21:18:24.582Z,19.50
2018-05-07T21:20:52.641Z,19.50
2018-05-07T21:23:20.729Z,19.40
2018-05-07T21:25:53.862Z,19.40
2018-05-07T21:28:22.042Z,19.40
2018-05-07T21:30:50.094Z,19.30
2018-05-07T21:33:18.178Z,19.30
2018-05-07T21:35:46.291Z,19.30
2018-05-07T21:38:14.345Z,19.30
2018-05-07T21:40:42.453Z,19.20
2018-05-07T21:43:10.537Z,19.20
2018-05-07T21:45:38.602Z,19.10
2018-05-07T21:48:06.668Z,19.10
2018-05-07T21:50:34.766Z,19.10
2018-05-07T21:53:02.821Z,19.00
2018-05-07T21:55:30.886Z,19.00
2018-05-07T21:58:04.029Z,19.00
2018-05-07T22:00:32.098Z,18.90
2018-05-07T22:03:00.153Z,18.90
2018-05-07T22:05:28.233Z,18.90
2018-05-07T22:07:56.389Z,18.80
2018-05-07T22:10:24.358Z,18.80
2018-05-07T22:12:52.586Z,18.80
2018-05-07T22:15:20.666Z,18.80
2018-05-07T22:17:48.733Z,18.80
2018-05-07T22:20:16.807Z,18.70
2018-05-07T22:22:44.838Z,18.70
2018-05-07T22:25:12.902Z,18.70
2018-05-07T22:27:40.999Z,18.60
2018-05-07T22:30:09.070Z,18.60
2018-05-07T22:32:37.150Z,18.50
2018-05-07T22:35:05.966Z,18.40
2018-05-07T22:37:34.042Z,18.40
2018-05-07T22:40:02.124Z,18.40
2018-05-07T22:42:31.600Z,18.30
2018-05-07T22:45:06.590Z,18.30
2018-05-07T22:47:34.662Z,18.20
2018-05-07T22:50:02.707Z,18.20
2018-05-07T22:52:30.780Z,18.10
2018-05-07T22:55:05.478Z,18.10
2018-05-07T22:57:33.559Z,18.00
2018-05-07T23:00:01.631Z,18.00
2018-05-07T23:02:29.698Z,18.00
2018-05-07T23:05:06.506Z,17.90
2018-05-07T23:07:34.577Z,17.90
2018-05-07T23:10:02.662Z,17.80
2018-05-07T23:12:30.758Z,17.80
2018-05-07T23:14:58.802Z,17.80
2018-05-07T23:17:26.845Z,17.70
2018-05-07T23:19:54.930Z,17.70
2018-05-07T23:22:22.993Z,17.70
2018-05-07T23:24:51.053Z,17.60
2018-05-07T23:27:19.152Z,17.60
2018-05-07T23:29:47.193Z,17.60
2018-05-07T23:32:15.241Z,17.50
2018-05-07T23:34:43.338Z,17.50
2018-05-07T23:37:12.155Z,17.40
2018-05-07T23:39:40.215Z,17.40
2018-05-07T23:42:08.296Z,17.40
2018-05-07T23:44:36.354Z,17.30
2018-05-07T23:47:04.522Z,17.30
2018-05-07T23:49:32.577Z,17.20
2018-05-07T23:52:00.649Z,17.20
2018-05-07T23:54:28.822Z,17.20
2018-05-07T23:56:56.874Z,17.10
2018-05-07T23:59:24.928Z,17.10
